Mar de Espanha, Brazil
Current Conditions -  °F | °C
As of 5:00 PM on Friday 21 Nov 2014 (Local Time) from SBJF Reporting Station
Few Clouds Few Clouds  
Wind Chill: 86°   Ceiling: Unl
Heat Index: 86°   Visibility: 6mi
Dew Point: 54°   Wind: 9mph
Humidity: 33%   Direction: 60°ENE
Pressure: 30"   Gusts: NA
Location:  21.87°S, 43.01°W
Report Text: SBJF 211900Z 06008KT 9999 FEW025 30/12 Q1016
Loading
Personal Weather Stations






























Interactive Weather Map New forecast layout! Learn more

10-Day Weather Forecast

Advertisements
Track Severe Weather on mobile